CCGS Louis S. St-Laurent — CGBN — position and weather

sailwx.info

Track history (hours):
 
Tides and Currents Weather Stations Pressure Air Temp Water Temp Dewpoint Dewpoint Depression Visibility Wind Speed Wind Dir Waves Ship Positions

Oceanographic research ship CCGS Louis S. St-Laurent (Canada)

Detailed information on ship capabilities available from ARCUS's ALIAS (Arctic Logistics Information and Support) project.

Last reported at 2017-Apr-26 00:00 UTC. Time now 2017-Apr-26 02:11 UTC.
Position N 46°48' W 071°12'.

Length 119.63 m; beam 24.38 m; draft 9.9 m.

MMSI: 316165000.

Wind from 030 at 2 knots

Barometer 1024.4 mb
Air temperature 4.9 ° C
Dewpoint 0.6 ° C

Date/timePositionNaut miles runAvg speedWind from/ knotsBaromVisibWave heightAir tempDewpointWater temp
2017-Apr-26 00:00N 46°48' W 071°12'0 0.0 030 / 21024.4 4.9 0.6
2017-Apr-25 18:00N 46°48' W 071°12'0 0.0 020 / 21027.4 6.7-0.7
2017-Apr-25 12:00N 46°48' W 071°12'0 0.0 030 / 41030.9 2.8-5.5
2017-Apr-25 06:00N 46°48' W 071°12'0 0.0 040 / 21029.1 2.4-3.4
2017-Apr-25 00:00N 46°48' W 071°12'0 0.0 240 / 61025.7 6.9-11.1
2017-Apr-24 18:00N 46°48' W 071°12'0 0.0 250 / 71025.6 5.7-10.1
2017-Apr-24 12:00N 46°48' W 071°12'0 0.0 300 / 61025.3 0.1-7.4
2017-Apr-24 06:00N 46°48' W 071°12'0 0.0 250 / 61019.2 2.9-0.3
2017-Apr-24 00:00N 46°48' W 071°12'0 0.0 280 / 121012.7 11.1 6.8
2017-Apr-23 18:00N 46°48' W 071°12'0 0.0 230 / 81014.9 11.6 3.5
2017-Apr-23 12:00N 46°48' W 071°12'0 0.0 220 / 31017.7 2.6 2.6
2017-Apr-23 11:00N 46°48' W 071°12'0 0.0 220 / 41017.5 3.1 2.9
2017-Apr-23 10:00N 46°48' W 071°12'0 0.0 270 / 31016.9 3.1 3.1
2017-Apr-23 09:00N 46°48' W 071°12'0 0.0 270 / 21016.4 3.9 3.6
2017-Apr-23 08:00N 46°48' W 071°12'0 0.0 180 / 41016.3 3.7 3.3
2017-Apr-23 07:00N 46°48' W 071°12'0 0.0 150 / 31016.2 3.8 3.5
2017-Apr-23 06:00N 46°48' W 071°12'0 0.0 110 / 21016.2 4.0 3.6
2017-Apr-23 05:00N 46°48' W 071°12'0 0.0 090 / 11015.8 4.2 3.8
2017-Apr-23 04:00N 46°48' W 071°12'0 0.0 140 / 21015.6 4.3 3.6
2017-Apr-23 03:00N 46°48' W 071°12'0 0.0 040 / 11015.5 5.0 3.8
2017-Apr-23 02:00N 46°48' W 071°12'0 0.0 030 / 21015.5 4.9 3.9
2017-Apr-23 01:00N 46°48' W 071°12'0 0.0 070 / 11015.4 5.0 3.8
2017-Apr-23 00:00N 46°48' W 071°12'0 0.0 100 / 21014.9 4.6 3.5
2017-Apr-22 23:00N 46°48' W 071°12'0 0.0 090 / 21014.5 5.0 3.6
2017-Apr-22 22:00N 46°48' W 071°12'0 0.0 090 / 21014.4 5.3 4.0
2017-Apr-22 21:00N 46°48' W 071°12'0 0.0 040 / 21014.2 5.2 4.0
2017-Apr-22 20:00N 46°48' W 071°12'0 0.0 030 / 21013.9 5.1 4.0
2017-Apr-22 19:00N 46°48' W 071°12'0 0.0 030 / 21014.1 5.2 4.2
2017-Apr-22 18:00N 46°48' W 071°12'0 0.0 040 / 21014.3 5.0 4.1
2017-Apr-22 17:00N 46°48' W 071°12'0 0.0 030 / 21014.1 4.8 3.9
2017-Apr-22 16:00N 46°48' W 071°12'0 0.0 040 / 21014.1 4.7 3.8
2017-Apr-22 15:00N 46°48' W 071°12'0 0.0 030 / 11014.1 4.6 4.0
2017-Apr-22 14:00N 46°48' W 071°12'0 0.0 030 / 31014.1 4.1 3.3
2017-Apr-22 13:00N 46°48' W 071°12'0 0.0 040 / 31014.4 4.0 3.1
2017-Apr-22 12:00N 46°48' W 071°12'0 0.0 030 / 11014.4 4.2 3.2
2017-Apr-22 11:00N 46°48' W 071°12'0 0.0 030 / 21014.1 3.8 3.0
2017-Apr-22 10:00N 46°48' W 071°12'0 0.0 040 / 21014.2 3.8 2.9
2017-Apr-22 09:00N 46°48' W 071°12'0 0.0 030 / 21014.0 3.5 3.0
2017-Apr-22 08:00N 46°48' W 071°12'0 0.0 030 / 21014.4 3.5 2.8
2017-Apr-22 07:00N 46°48' W 071°12'0 0.0 020 / 21014.5 3.8 2.9
2017-Apr-22 06:00N 46°48' W 071°12'0 0.0 030 / 31014.8 3.5 2.7
2017-Apr-22 05:00N 46°48' W 071°12'0 0.0 020 / 21015.2 3.9 2.9
2017-Apr-22 04:00N 46°48' W 071°12'0 0.0 030 / 31015.5 3.7 2.5
2017-Apr-22 03:00N 46°48' W 071°12'0 0.0 040 / 41015.7 3.5 2.3
2017-Apr-22 02:00N 46°48' W 071°12'0 0.0 030 / 41016.2 3.3 2.2
2017-Apr-22 01:00N 46°48' W 071°12'0 0.0 030 / 41016.5 3.7
2017-Apr-22 00:00N 46°48' W 071°12'0 0.0 040 / 61016.4 3.5 2.2
2017-Apr-21 23:00N 46°48' W 071°12'0 0.0 030 / 41016.4 3.5 2.5
2017-Apr-21 22:00N 46°48' W 071°12'0 0.0 030 / 51016.8 3.6 2.6
2017-Apr-21 21:00N 46°48' W 071°12'0 0.0 030 / 41016.6 4.1 3.3
2017-Apr-21 20:00N 46°48' W 071°12'0 0.0 030 / 51016.7 4.4 3.2
2017-Apr-21 19:00N 46°48' W 071°12'0 0.0 030 / 41017.1 4.9 3.9
2017-Apr-21 18:00N 46°48' W 071°12'0 0.0 020 / 51017.4 5.2 3.7
2017-Apr-21 17:00N 46°48' W 071°12'0 0.0 030 / 31017.4 5.5 3.1
2017-Apr-21 16:00N 46°48' W 071°12'0 0.0 030 / 31018.3 5.8 2.4
2017-Apr-21 15:00N 46°48' W 071°12'0 0.0 030 / 31019.2 5.9 2.6
2017-Apr-21 14:00N 46°48' W 071°12'0 0.0 040 / 51019.6 5.1 2.4
2017-Apr-21 13:00N 46°48' W 071°12'0 0.0 030 / 41020.5 4.7 2.2
2017-Apr-21 12:00N 46°48' W 071°12'0 0.0 040 / 51021.1 4.5 2.0
2017-Apr-21 11:00N 46°48' W 071°12'0 0.0 030 / 41021.5 4.1 2.1
2017-Apr-21 10:00N 46°48' W 071°12'0 0.0 030 / 31022.2 4.1 1.9
2017-Apr-21 09:00N 46°48' W 071°12'0 0.0 040 / 81022.3 3.3 1.8
2017-Apr-21 08:00N 46°48' W 071°12'0 0.0 030 / 31022.8 3.8 2.0
2017-Apr-21 07:00N 46°48' W 071°12'0 0.0 020 / 21023.5 3.8 2.3
2017-Apr-21 06:00N 46°48' W 071°12'0 0.0 020 / 21024.4 3.8 2.2
2017-Apr-21 05:00N 46°48' W 071°12'0 0.0 030 / 51024.9 3.9 2.2
2017-Apr-21 04:00N 46°48' W 071°12'0 0.0 030 / 41024.5 4.2 2.3
2017-Apr-21 03:00N 46°48' W 071°12'0 0.0 020 / 21024.3 4.6 2.3
2017-Apr-21 02:00N 46°48' W 071°12'0 0.0 030 / 21024.4 5.4 1.7
2017-Apr-21 01:00N 46°48' W 071°12'0 0.0 030 / 21023.8 5.7 2.4
2017-Apr-21 00:00N 46°48' W 071°12'0 0.0 040 / 31024.3 5.6 2.5
2017-Apr-20 23:00N 46°48' W 071°12'0 0.0 030 / 21024.6 6.6 2.8
2017-Apr-20 22:00N 46°48' W 071°12'0 0.0 030 / 21024.6 7.6 2.4
2017-Apr-20 21:00N 46°48' W 071°12'0 0.0 030 / 21024.4 6.8 3.5
2017-Apr-20 20:00N 46°48' W 071°12'0 0.0 040 / 31024.1 6.2 3.1
2017-Apr-20 19:00N 46°48' W 071°12'0 0.0 040 / 21024.0 6.7 3.0
2017-Apr-20 18:00N 46°48' W 071°12'0 0.0 040 / 21024.0 7.1 3.7
2017-Apr-20 17:00N 46°48' W 071°12'0 0.0 030 / 51023.6 6.9 4.0
2017-Apr-20 16:00N 46°48' W 071°12'0 0.0 040 / 31023.5 8.2 4.0
2017-Apr-20 15:00N 46°48' W 071°12'0 0.0 040 / 21023.3 7.4 4.6
2017-Apr-20 14:00N 46°48' W 071°12'0 0.0 040 / 21023.3 6.6 4.6
2017-Apr-20 13:00N 46°48' W 071°12'0 0.0 030 / 11022.9 6.0 4.4
2017-Apr-20 12:00N 46°48' W 071°12'0 0.0 030 / 11021.9 5.5 4.5
2017-Apr-20 11:00N 46°48' W 071°12'0 0.0 030 / 31022.0 5.1 3.7
2017-Apr-20 10:00N 46°48' W 071°12'0 0.0 020 / 31019.8 5.1 4.2
2017-Apr-20 09:00N 46°48' W 071°12'0 0.0 040 / 21019.4 5.0 4.2
2017-Apr-20 07:00N 46°48' W 071°12'0 0.0 040 / 31018.9 4.8 4.2
2017-Apr-20 06:00N 46°48' W 071°12'0 0.0 040 / 21018.9 4.8 4.3
2017-Apr-20 05:00N 46°48' W 071°12'0 0.0 030 / 21018.8 4.9 4.4
2017-Apr-20 04:00N 46°48' W 071°12'0 0.0 040 / 21019.0 4.9 4.4
2017-Apr-20 03:00N 46°48' W 071°12'0 0.0 060 / 11018.8 4.8 4.4
2017-Apr-20 02:00N 46°48' W 071°12'0 0.0 050 / 11019.4 5.3 4.7
2017-Apr-20 01:00N 46°48' W 071°12'0 0.0 040 / 21019.6 5.7 4.6
2017-Apr-20 00:00N 46°48' W 071°12'0 0.0 130 / 21019.6 5.9 4.2
2017-Apr-19 23:00N 46°48' W 071°12'0 0.0 180 / 51020.5 7.3 5.6
2017-Apr-19 22:00N 46°48' W 071°12'0 0.0 190 / 41020.5 8.4 4.5
2017-Apr-19 21:00N 46°48' W 071°12'0 0.0 170 / 51020.8 9.5 3.0
2017-Apr-19 20:00N 46°48' W 071°12'0 0.0 130 / 41021.0 10.7 1.3
2017-Apr-19 19:00N 46°48' W 071°12'0 0.0 040 / 21021.6 8.5 2.4
2017-Apr-19 18:00N 46°48' W 071°12'0 0.0 030 / 31023.0 7.8 2.1
2017-Apr-19 17:00N 46°48' W 071°12'0 0.0 030 / 21023.8 7.4 1.7
2017-Apr-19 16:00N 46°48' W 071°12'0 0.0 040 / 31026.0 6.4 0.8
2017-Apr-19 15:00N 46°48' W 071°12'0 0.0 040 / 31027.4 6.1 0.6
2017-Apr-19 14:00N 46°48' W 071°12'0 0.0 030 / 21028.5 6.0 0.6
2017-Apr-19 13:00N 46°48' W 071°12'0 0.0 030 / 21029.5 4.6 0.4
2017-Apr-19 12:00N 46°48' W 071°12'0 0.0 040 / 31030.5 3.1-0.2
2017-Apr-19 11:00N 46°48' W 071°12'0 0.0 030 / 21031.4 2.8-0.6
2017-Apr-19 10:00N 46°48' W 071°12'0 0.0 040 / 21031.9 2.3-1.1
2017-Apr-19 09:00N 46°48' W 071°12'0 0.0 040 / 21032.2 2.3-1.6
2017-Apr-19 08:00N 46°48' W 071°12'0 0.0 030 / 21032.5 2.4-1.7
2017-Apr-19 07:00N 46°48' W 071°12'0 0.0 040 / 31033.2 1.9-3.0
2017-Apr-19 06:00N 46°48' W 071°12'0 0.0 040 / 31033.4 1.8-2.5
2017-Apr-19 05:00N 46°48' W 071°12'0 0.0 030 / 21033.8 2.0-1.8
2017-Apr-19 04:00N 46°48' W 071°12'0 0.0 040 / 41034.1 1.7-2.0
2017-Apr-19 03:00N 46°48' W 071°12'0 0.0 030 / 21034.5 2.1-1.7
2017-Apr-19 02:00N 46°48' W 071°12'0 0.0 040 / 31034.8 2.4-1.1
2017-Apr-19 01:00N 46°48' W 071°12'0 0.0 060 / 21035.0 2.0-2.7
2017-Apr-19 00:00N 46°48' W 071°12'0 0.0 040 / 21034.9 3.0-3.6
2017-Apr-18 23:00N 46°48' W 071°12'0 0.0 040 / 31034.4 3.7-5.5
2017-Apr-18 22:00N 46°48' W 071°12'0 0.0 040 / 21034.5 4.6-4.3
2017-Apr-18 21:00N 46°48' W 071°12'0 0.0 030 / 21034.3 5.1-3.9
2017-Apr-18 20:00N 46°48' W 071°12'0 0.0 030 / 21034.3 4.5-2.8
2017-Apr-18 19:00N 46°48' W 071°12'0 0.0 030 / 31034.6 4.6-3.0
2017-Apr-18 18:00N 46°48' W 071°12'0 0.0 040 / 31034.7 3.7-2.5
2017-Apr-18 17:00N 46°48' W 071°12'0 0.0 040 / 21034.6 3.5-2.5
2017-Apr-18 16:00N 46°48' W 071°12'0 0.0 030 / 31034.1 2.9-2.5
2017-Apr-18 15:00N 46°48' W 071°12'0 0.0 030 / 31033.9 2.4-2.5
2017-Apr-18 14:00N 46°48' W 071°12'0 0.0 030 / 41032.9 1.8-1.6
2017-Apr-18 13:00N 46°48' W 071°12'0 0.0 030 / 31032.1 1.6-3.5
2017-Apr-18 12:00N 46°48' W 071°12'0 0.0 030 / 31031.1 1.4-3.8
2017-Apr-18 11:00N 46°48' W 071°12'0 0.0 040 / 31030.2 0.8-1.1
2017-Apr-18 09:00N 46°48' W 071°12'0 0.0 030 / 21028.3 1.3-1.0
2017-Apr-18 08:00N 46°48' W 071°12'0 0.0 030 / 31027.3 1.6-2.0
2017-Apr-18 07:00N 46°48' W 071°12'0 0.0 030 / 21026.4 1.6-1.2
2017-Apr-18 06:00N 46°48' W 071°12'0 0.0 030 / 21025.7 1.6-1.3
2017-Apr-18 05:00N 46°48' W 071°12'0 0.0 030 / 31025.3 1.5-0.8
2017-Apr-18 04:00N 46°48' W 071°12'0 0.0 070 / 21024.7 1.1-1.1
2017-Apr-18 03:00N 46°48' W 071°12'0 0.0 030 / 31024.3 1.1-1.1
2017-Apr-18 02:00N 46°48' W 071°12'0 0.0 030 / 31023.7 1.3-1.0
2017-Apr-18 01:00N 46°48' W 071°12'0 0.0 020 / 21023.0 1.6-0.9
2017-Apr-18 00:00N 46°48' W 071°12'0 0.0 030 / 31021.7 1.3-0.7
2017-Apr-17 23:00N 46°48' W 071°12'0 0.0 040 / 41020.5 1.3-1.1
2017-Apr-17 22:00N 46°48' W 071°12'0 0.0 040 / 41019.3 1.8-1.5
2017-Apr-17 21:00N 46°48' W 071°12'0 0.0 030 / 41018.3 2.1-1.0
2017-Apr-17 20:00N 46°48' W 071°12'0 0.0 040 / 51017.1 2.2-0.9
2017-Apr-17 19:00N 46°48' W 071°12'0 0.0 030 / 41016.2 1.9-0.3
2017-Apr-17 18:00N 46°48' W 071°12'0 0.0 030 / 41015.1 2.2-0.1
2017-Apr-17 17:00N 46°48' W 071°12'0 0.0 040 / 31014.2 3.3 0.8
2017-Apr-17 16:00N 46°48' W 071°12'0 0.0 030 / 31013.2 3.1 1.2
2017-Apr-17 15:00N 46°48' W 071°12'0 0.0 010 / 11012.6 3.5 2.0
2017-Apr-17 14:00N 46°48' W 071°12'0 0.0 020 / 21011.0 3.1 1.3
2017-Apr-17 13:00N 46°48' W 071°12'0 0.0 070 / 21010.4 2.3 1.5
2017-Apr-17 12:00N 46°48' W 071°12'0 0.0 030 / 41010.0 2.3 1.3
2017-Apr-17 11:00N 46°48' W 071°12'0 0.0 030 / 31009.2 2.5 1.4
2017-Apr-17 10:00N 46°48' W 071°12'0 0.0 030 / 21008.4 2.5 1.4
2017-Apr-17 09:00N 46°48' W 071°12'0 0.0 040 / 41007.8 2.5 1.1
2017-Apr-17 08:00N 46°48' W 071°12'0 0.0 040 / 51008.0 2.8 0.7
2017-Apr-17 07:00N 46°48' W 071°12'0 0.0 040 / 41008.6 3.0 1.0
2017-Apr-17 06:00N 46°48' W 071°12'0 0.0 030 / 41009.1 3.1 1.2
2017-Apr-17 05:00N 46°48' W 071°12'0 0.0 040 / 51009.0 3.0 1.4
2017-Apr-17 04:00N 46°48' W 071°12'0 0.0 030 / 41009.0 3.3 1.9
2017-Apr-17 03:00N 46°48' W 071°12'0 0.0 030 / 61008.7 3.0 1.9
2017-Apr-17 02:00N 46°48' W 071°12'0 0.0 040 / 61008.5 3.0 1.9
2017-Apr-17 01:00N 46°48' W 071°12'0 0.0 030 / 51008.4 3.1 1.8
2017-Apr-17 00:00N 46°48' W 071°12'0 0.0 040 / 61007.0 3.3 1.8
2017-Apr-16 23:00N 46°48' W 071°12'0 0.0 040 / 51006.6 3.4 2.1
2017-Apr-16 22:00N 46°48' W 071°12'0 0.0 030 / 41006.7 3.7 2.5
2017-Apr-16 21:00N 46°48' W 071°12'0 0.0 030 / 41007.4 4.2 2.5
2017-Apr-16 20:00N 46°48' W 071°12'0 0.0 030 / 31007.4 4.7 2.4
2017-Apr-16 19:00N 46°48' W 071°12'0 0.0 030 / 21007.4 5.3 2.2
2017-Apr-16 18:00N 46°48' W 071°12'0 0.0 030 / 31007.8 5.0 2.0
2017-Apr-16 17:00N 46°48' W 071°12'0 0.0 030 / 21007.2 5.6 2.4
2017-Apr-16 16:00N 46°48' W 071°12'0 0.0 030 / 21007.1 5.9 2.7
2017-Apr-16 15:00N 46°48' W 071°12'0 0.0 030 / 21006.9 5.0 2.9
2017-Apr-16 14:00N 46°48' W 071°12'0 0.0 020 / 11006.8 4.5 3.2
2017-Apr-16 13:00N 46°48' W 071°12'0 0.0 030 / 21006.5 4.0 3.1
2017-Apr-16 11:00N 46°48' W 071°12'0 0.0 020 / 21005.8 4.0 3.2
2017-Apr-16 10:00N 46°48' W 071°12'0 0.0 040 / 31005.4 3.7 3.0
2017-Apr-16 09:00N 46°48' W 071°12'0 0.0 030 / 21005.1 4.1 3.6
2017-Apr-16 08:00N 46°48' W 071°12'0 0.0 050 / 21005.1 4.8 4.3
2017-Apr-16 07:00N 46°48' W 071°12'0 0.0 040 / 21005.5 8.1 7.4
2017-Apr-16 06:00N 46°48' W 071°12'0 0.0 1006.4 9.7 8.9
2017-Apr-16 05:00N 46°48' W 071°12'0 0.0 210 / 11007.6 11.5 9.0
2017-Apr-16 04:00N 46°48' W 071°12'0 0.0 220 / 41008.6 12.2 8.1
2017-Apr-16 03:00N 46°48' W 071°12'0 0.0 240 / 71009.5 13.1 7.1
2017-Apr-16 02:00N 46°48' W 071°12'0 0.0 250 / 11010.0 11.9 0.3
2017-Apr-16 01:00N 46°48' W 071°12'0 0.0 200 / 21010.6 13.7-1.0
2017-Apr-16 00:00N 46°48' W 071°12'   190 / 41011.3 14.5-1.8
Track history (hours):
 
Tides and Currents Weather Stations Pressure Air Temp Water Temp Dewpoint Dewpoint Depression Visibility Wind Speed Wind Dir Waves Ship Positions

Oceanographic research ship CCGS Louis S. St-Laurent (Canada)

Detailed information on ship capabilities available from ARCUS's ALIAS (Arctic Logistics Information and Support) project.

Last reported at 2017-Apr-26 00:00 UTC. Time now 2017-Apr-26 02:11 UTC.
Position N 46°48' W 071°12'.

Length 119.63 m; beam 24.38 m; draft 9.9 m.

MMSI: 316165000.

Wind from 030 at 2 knots

Barometer 1024.4 mb
Air temperature 4.9 ° C
Dewpoint 0.6 ° C

Date/timePositionNaut miles runAvg speedWind from/ knotsBaromVisibWave heightAir tempDewpointWater temp
2017-Apr-26 00:00N 46°48' W 071°12'0 0.0 030 / 21024.4 4.9 0.6
2017-Apr-25 18:00N 46°48' W 071°12'0 0.0 020 / 21027.4 6.7-0.7
2017-Apr-25 12:00N 46°48' W 071°12'0 0.0 030 / 41030.9 2.8-5.5
2017-Apr-25 06:00N 46°48' W 071°12'0 0.0 040 / 21029.1 2.4-3.4
2017-Apr-25 00:00N 46°48' W 071°12'0 0.0 240 / 61025.7 6.9-11.1
2017-Apr-24 18:00N 46°48' W 071°12'0 0.0 250 / 71025.6 5.7-10.1
2017-Apr-24 12:00N 46°48' W 071°12'0 0.0 300 / 61025.3 0.1-7.4
2017-Apr-24 06:00N 46°48' W 071°12'0 0.0 250 / 61019.2 2.9-0.3
2017-Apr-24 00:00N 46°48' W 071°12'0 0.0 280 / 121012.7 11.1 6.8
2017-Apr-23 18:00N 46°48' W 071°12'0 0.0 230 / 81014.9 11.6 3.5
2017-Apr-23 12:00N 46°48' W 071°12'0 0.0 220 / 31017.7 2.6 2.6
2017-Apr-23 11:00N 46°48' W 071°12'0 0.0 220 / 41017.5 3.1 2.9
2017-Apr-23 10:00N 46°48' W 071°12'0 0.0 270 / 31016.9 3.1 3.1
2017-Apr-23 09:00N 46°48' W 071°12'0 0.0 270 / 21016.4 3.9 3.6
2017-Apr-23 08:00N 46°48' W 071°12'0 0.0 180 / 41016.3 3.7 3.3
2017-Apr-23 07:00N 46°48' W 071°12'0 0.0 150 / 31016.2 3.8 3.5
2017-Apr-23 06:00N 46°48' W 071°12'0 0.0 110 / 21016.2 4.0 3.6
2017-Apr-23 05:00N 46°48' W 071°12'0 0.0 090 / 11015.8 4.2 3.8
2017-Apr-23 04:00N 46°48' W 071°12'0 0.0 140 / 21015.6 4.3 3.6
2017-Apr-23 03:00N 46°48' W 071°12'0 0.0 040 / 11015.5 5.0 3.8
2017-Apr-23 02:00N 46°48' W 071°12'0 0.0 030 / 21015.5 4.9 3.9
2017-Apr-23 01:00N 46°48' W 071°12'0 0.0 070 / 11015.4 5.0 3.8
2017-Apr-23 00:00N 46°48' W 071°12'0 0.0 100 / 21014.9 4.6 3.5
2017-Apr-22 23:00N 46°48' W 071°12'0 0.0 090 / 21014.5 5.0 3.6
2017-Apr-22 22:00N 46°48' W 071°12'0 0.0 090 / 21014.4 5.3 4.0
2017-Apr-22 21:00N 46°48' W 071°12'0 0.0 040 / 21014.2 5.2 4.0
2017-Apr-22 20:00N 46°48' W 071°12'0 0.0 030 / 21013.9 5.1 4.0
2017-Apr-22 19:00N 46°48' W 071°12'0 0.0 030 / 21014.1 5.2 4.2
2017-Apr-22 18:00N 46°48' W 071°12'0 0.0 040 / 21014.3 5.0 4.1
2017-Apr-22 17:00N 46°48' W 071°12'0 0.0 030 / 21014.1 4.8 3.9
2017-Apr-22 16:00N 46°48' W 071°12'0 0.0 040 / 21014.1 4.7 3.8
2017-Apr-22 15:00N 46°48' W 071°12'0 0.0 030 / 11014.1 4.6 4.0
2017-Apr-22 14:00N 46°48' W 071°12'0 0.0 030 / 31014.1 4.1 3.3
2017-Apr-22 13:00N 46°48' W 071°12'0 0.0 040 / 31014.4 4.0 3.1
2017-Apr-22 12:00N 46°48' W 071°12'0 0.0 030 / 11014.4 4.2 3.2
2017-Apr-22 11:00N 46°48' W 071°12'0 0.0 030 / 21014.1 3.8 3.0
2017-Apr-22 10:00N 46°48' W 071°12'0 0.0 040 / 21014.2 3.8 2.9
2017-Apr-22 09:00N 46°48' W 071°12'0 0.0 030 / 21014.0 3.5 3.0
2017-Apr-22 08:00N 46°48' W 071°12'0 0.0 030 / 21014.4 3.5 2.8
2017-Apr-22 07:00N 46°48' W 071°12'0 0.0 020 / 21014.5 3.8 2.9
2017-Apr-22 06:00N 46°48' W 071°12'0 0.0 030 / 31014.8 3.5 2.7
2017-Apr-22 05:00N 46°48' W 071°12'0 0.0 020 / 21015.2 3.9 2.9
2017-Apr-22 04:00N 46°48' W 071°12'0 0.0 030 / 31015.5 3.7 2.5
2017-Apr-22 03:00N 46°48' W 071°12'0 0.0 040 / 41015.7 3.5 2.3
2017-Apr-22 02:00N 46°48' W 071°12'0 0.0 030 / 41016.2 3.3 2.2
2017-Apr-22 01:00N 46°48' W 071°12'0 0.0 030 / 41016.5 3.7
2017-Apr-22 00:00N 46°48' W 071°12'0 0.0 040 / 61016.4 3.5 2.2
2017-Apr-21 23:00N 46°48' W 071°12'0 0.0 030 / 41016.4 3.5 2.5
2017-Apr-21 22:00N 46°48' W 071°12'0 0.0 030 / 51016.8 3.6 2.6
2017-Apr-21 21:00N 46°48' W 071°12'0 0.0 030 / 41016.6 4.1 3.3
2017-Apr-21 20:00N 46°48' W 071°12'0 0.0 030 / 51016.7 4.4 3.2
2017-Apr-21 19:00N 46°48' W 071°12'0 0.0 030 / 41017.1 4.9 3.9
2017-Apr-21 18:00N 46°48' W 071°12'0 0.0 020 / 51017.4 5.2 3.7
2017-Apr-21 17:00N 46°48' W 071°12'0 0.0 030 / 31017.4 5.5 3.1
2017-Apr-21 16:00N 46°48' W 071°12'0 0.0 030 / 31018.3 5.8 2.4
2017-Apr-21 15:00N 46°48' W 071°12'0 0.0 030 / 31019.2 5.9 2.6
2017-Apr-21 14:00N 46°48' W 071°12'0 0.0 040 / 51019.6 5.1 2.4
2017-Apr-21 13:00N 46°48' W 071°12'0 0.0 030 / 41020.5 4.7 2.2
2017-Apr-21 12:00N 46°48' W 071°12'0 0.0 040 / 51021.1 4.5 2.0
2017-Apr-21 11:00N 46°48' W 071°12'0 0.0 030 / 41021.5 4.1 2.1
2017-Apr-21 10:00N 46°48' W 071°12'0 0.0 030 / 31022.2 4.1 1.9
2017-Apr-21 09:00N 46°48' W 071°12'0 0.0 040 / 81022.3 3.3 1.8
2017-Apr-21 08:00N 46°48' W 071°12'0 0.0 030 / 31022.8 3.8 2.0
2017-Apr-21 07:00N 46°48' W 071°12'0 0.0 020 / 21023.5 3.8 2.3
2017-Apr-21 06:00N 46°48' W 071°12'0 0.0 020 / 21024.4 3.8 2.2
2017-Apr-21 05:00N 46°48' W 071°12'0 0.0 030 / 51024.9 3.9 2.2
2017-Apr-21 04:00N 46°48' W 071°12'0 0.0 030 / 41024.5 4.2 2.3
2017-Apr-21 03:00N 46°48' W 071°12'0 0.0 020 / 21024.3 4.6 2.3
2017-Apr-21 02:00N 46°48' W 071°12'0 0.0 030 / 21024.4 5.4 1.7
2017-Apr-21 01:00N 46°48' W 071°12'0 0.0 030 / 21023.8 5.7 2.4
2017-Apr-21 00:00N 46°48' W 071°12'0 0.0 040 / 31024.3 5.6 2.5
2017-Apr-20 23:00N 46°48' W 071°12'0 0.0 030 / 21024.6 6.6 2.8
2017-Apr-20 22:00N 46°48' W 071°12'0 0.0 030 / 21024.6 7.6 2.4
2017-Apr-20 21:00N 46°48' W 071°12'0 0.0 030 / 21024.4 6.8 3.5
2017-Apr-20 20:00N 46°48' W 071°12'0 0.0 040 / 31024.1 6.2 3.1
2017-Apr-20 19:00N 46°48' W 071°12'0 0.0 040 / 21024.0 6.7 3.0
2017-Apr-20 18:00N 46°48' W 071°12'0 0.0 040 / 21024.0 7.1 3.7
2017-Apr-20 17:00N 46°48' W 071°12'0 0.0 030 / 51023.6 6.9 4.0
2017-Apr-20 16:00N 46°48' W 071°12'0 0.0 040 / 31023.5 8.2 4.0
2017-Apr-20 15:00N 46°48' W 071°12'0 0.0 040 / 21023.3 7.4 4.6
2017-Apr-20 14:00N 46°48' W 071°12'0 0.0 040 / 21023.3 6.6 4.6
2017-Apr-20 13:00N 46°48' W 071°12'0 0.0 030 / 11022.9 6.0 4.4
2017-Apr-20 12:00N 46°48' W 071°12'0 0.0 030 / 11021.9 5.5 4.5
2017-Apr-20 11:00N 46°48' W 071°12'0 0.0 030 / 31022.0 5.1 3.7
2017-Apr-20 10:00N 46°48' W 071°12'0 0.0 020 / 31019.8 5.1 4.2
2017-Apr-20 09:00N 46°48' W 071°12'0 0.0 040 / 21019.4 5.0 4.2
2017-Apr-20 07:00N 46°48' W 071°12'0 0.0 040 / 31018.9 4.8 4.2
2017-Apr-20 06:00N 46°48' W 071°12'0 0.0 040 / 21018.9 4.8 4.3
2017-Apr-20 05:00N 46°48' W 071°12'0 0.0 030 / 21018.8 4.9 4.4
2017-Apr-20 04:00N 46°48' W 071°12'0 0.0 040 / 21019.0 4.9 4.4
2017-Apr-20 03:00N 46°48' W 071°12'0 0.0 060 / 11018.8 4.8 4.4
2017-Apr-20 02:00N 46°48' W 071°12'0 0.0 050 / 11019.4 5.3 4.7
2017-Apr-20 01:00N 46°48' W 071°12'0 0.0 040 / 21019.6 5.7 4.6
2017-Apr-20 00:00N 46°48' W 071°12'0 0.0 130 / 21019.6 5.9 4.2
2017-Apr-19 23:00N 46°48' W 071°12'0 0.0 180 / 51020.5 7.3 5.6
2017-Apr-19 22:00N 46°48' W 071°12'0 0.0 190 / 41020.5 8.4 4.5
2017-Apr-19 21:00N 46°48' W 071°12'0 0.0 170 / 51020.8 9.5 3.0
2017-Apr-19 20:00N 46°48' W 071°12'0 0.0 130 / 41021.0 10.7 1.3
2017-Apr-19 19:00N 46°48' W 071°12'0 0.0 040 / 21021.6 8.5 2.4
2017-Apr-19 18:00N 46°48' W 071°12'0 0.0 030 / 31023.0 7.8 2.1
2017-Apr-19 17:00N 46°48' W 071°12'0 0.0 030 / 21023.8 7.4 1.7
2017-Apr-19 16:00N 46°48' W 071°12'0 0.0 040 / 31026.0 6.4 0.8
2017-Apr-19 15:00N 46°48' W 071°12'0 0.0 040 / 31027.4 6.1 0.6
2017-Apr-19 14:00N 46°48' W 071°12'0 0.0 030 / 21028.5 6.0 0.6
2017-Apr-19 13:00N 46°48' W 071°12'0 0.0 030 / 21029.5 4.6 0.4
2017-Apr-19 12:00N 46°48' W 071°12'0 0.0 040 / 31030.5 3.1-0.2
2017-Apr-19 11:00N 46°48' W 071°12'0 0.0 030 / 21031.4 2.8-0.6
2017-Apr-19 10:00N 46°48' W 071°12'0 0.0 040 / 21031.9 2.3-1.1
2017-Apr-19 09:00N 46°48' W 071°12'0 0.0 040 / 21032.2 2.3-1.6
2017-Apr-19 08:00N 46°48' W 071°12'0 0.0 030 / 21032.5 2.4-1.7
2017-Apr-19 07:00N 46°48' W 071°12'0 0.0 040 / 31033.2 1.9-3.0
2017-Apr-19 06:00N 46°48' W 071°12'0 0.0 040 / 31033.4 1.8-2.5
2017-Apr-19 05:00N 46°48' W 071°12'0 0.0 030 / 21033.8 2.0-1.8
2017-Apr-19 04:00N 46°48' W 071°12'0 0.0 040 / 41034.1 1.7-2.0
2017-Apr-19 03:00N 46°48' W 071°12'0 0.0 030 / 21034.5 2.1-1.7
2017-Apr-19 02:00N 46°48' W 071°12'0 0.0 040 / 31034.8 2.4-1.1
2017-Apr-19 01:00N 46°48' W 071°12'0 0.0 060 / 21035.0 2.0-2.7
2017-Apr-19 00:00N 46°48' W 071°12'0 0.0 040 / 21034.9 3.0-3.6
2017-Apr-18 23:00N 46°48' W 071°12'0 0.0 040 / 31034.4 3.7-5.5
2017-Apr-18 22:00N 46°48' W 071°12'0 0.0 040 / 21034.5 4.6-4.3
2017-Apr-18 21:00N 46°48' W 071°12'0 0.0 030 / 21034.3 5.1-3.9
2017-Apr-18 20:00N 46°48' W 071°12'0 0.0 030 / 21034.3 4.5-2.8
2017-Apr-18 19:00N 46°48' W 071°12'0 0.0 030 / 31034.6 4.6-3.0
2017-Apr-18 18:00N 46°48' W 071°12'0 0.0 040 / 31034.7 3.7-2.5
2017-Apr-18 17:00N 46°48' W 071°12'0 0.0 040 / 21034.6 3.5-2.5
2017-Apr-18 16:00N 46°48' W 071°12'0 0.0 030 / 31034.1 2.9-2.5
2017-Apr-18 15:00N 46°48' W 071°12'0 0.0 030 / 31033.9 2.4-2.5
2017-Apr-18 14:00N 46°48' W 071°12'0 0.0 030 / 41032.9 1.8-1.6
2017-Apr-18 13:00N 46°48' W 071°12'0 0.0 030 / 31032.1 1.6-3.5
2017-Apr-18 12:00N 46°48' W 071°12'0 0.0 030 / 31031.1 1.4-3.8
2017-Apr-18 11:00N 46°48' W 071°12'0 0.0 040 / 31030.2 0.8-1.1
2017-Apr-18 09:00N 46°48' W 071°12'0 0.0 030 / 21028.3 1.3-1.0
2017-Apr-18 08:00N 46°48' W 071°12'0 0.0 030 / 31027.3 1.6-2.0
2017-Apr-18 07:00N 46°48' W 071°12'0 0.0 030 / 21026.4 1.6-1.2
2017-Apr-18 06:00N 46°48' W 071°12'0 0.0 030 / 21025.7 1.6-1.3
2017-Apr-18 05:00N 46°48' W 071°12'0 0.0 030 / 31025.3 1.5-0.8
2017-Apr-18 04:00N 46°48' W 071°12'0 0.0 070 / 21024.7 1.1-1.1
2017-Apr-18 03:00N 46°48' W 071°12'0 0.0 030 / 31024.3 1.1-1.1
2017-Apr-18 02:00N 46°48' W 071°12'0 0.0 030 / 31023.7 1.3-1.0
2017-Apr-18 01:00N 46°48' W 071°12'0 0.0 020 / 21023.0 1.6-0.9
2017-Apr-18 00:00N 46°48' W 071°12'0 0.0 030 / 31021.7 1.3-0.7
2017-Apr-17 23:00N 46°48' W 071°12'0 0.0 040 / 41020.5 1.3-1.1
2017-Apr-17 22:00N 46°48' W 071°12'0 0.0 040 / 41019.3 1.8-1.5
2017-Apr-17 21:00N 46°48' W 071°12'0 0.0 030 / 41018.3 2.1-1.0
2017-Apr-17 20:00N 46°48' W 071°12'0 0.0 040 / 51017.1 2.2-0.9
2017-Apr-17 19:00N 46°48' W 071°12'0 0.0 030 / 41016.2 1.9-0.3
2017-Apr-17 18:00N 46°48' W 071°12'0 0.0 030 / 41015.1 2.2-0.1
2017-Apr-17 17:00N 46°48' W 071°12'0 0.0 040 / 31014.2 3.3 0.8
2017-Apr-17 16:00N 46°48' W 071°12'0 0.0 030 / 31013.2 3.1 1.2
2017-Apr-17 15:00N 46°48' W 071°12'0 0.0 010 / 11012.6 3.5 2.0
2017-Apr-17 14:00N 46°48' W 071°12'0 0.0 020 / 21011.0 3.1 1.3
2017-Apr-17 13:00N 46°48' W 071°12'0 0.0 070 / 21010.4 2.3 1.5
2017-Apr-17 12:00N 46°48' W 071°12'0 0.0 030 / 41010.0 2.3 1.3
2017-Apr-17 11:00N 46°48' W 071°12'0 0.0 030 / 31009.2 2.5 1.4
2017-Apr-17 10:00N 46°48' W 071°12'0 0.0 030 / 21008.4 2.5 1.4
2017-Apr-17 09:00N 46°48' W 071°12'0 0.0 040 / 41007.8 2.5 1.1
2017-Apr-17 08:00N 46°48' W 071°12'0 0.0 040 / 51008.0 2.8 0.7
2017-Apr-17 07:00N 46°48' W 071°12'0 0.0 040 / 41008.6 3.0 1.0
2017-Apr-17 06:00N 46°48' W 071°12'0 0.0 030 / 41009.1 3.1 1.2
2017-Apr-17 05:00N 46°48' W 071°12'0 0.0 040 / 51009.0 3.0 1.4
2017-Apr-17 04:00N 46°48' W 071°12'0 0.0 030 / 41009.0 3.3 1.9
2017-Apr-17 03:00N 46°48' W 071°12'0 0.0 030 / 61008.7 3.0 1.9
2017-Apr-17 02:00N 46°48' W 071°12'0 0.0 040 / 61008.5 3.0 1.9
2017-Apr-17 01:00N 46°48' W 071°12'0 0.0 030 / 51008.4 3.1 1.8
2017-Apr-17 00:00N 46°48' W 071°12'0 0.0 040 / 61007.0 3.3 1.8
2017-Apr-16 23:00N 46°48' W 071°12'0 0.0 040 / 51006.6 3.4 2.1
2017-Apr-16 22:00N 46°48' W 071°12'0 0.0 030 / 41006.7 3.7 2.5
2017-Apr-16 21:00N 46°48' W 071°12'0 0.0 030 / 41007.4 4.2 2.5
2017-Apr-16 20:00N 46°48' W 071°12'0 0.0 030 / 31007.4 4.7 2.4
2017-Apr-16 19:00N 46°48' W 071°12'0 0.0 030 / 21007.4 5.3 2.2
2017-Apr-16 18:00N 46°48' W 071°12'0 0.0 030 / 31007.8 5.0 2.0
2017-Apr-16 17:00N 46°48' W 071°12'0 0.0 030 / 21007.2 5.6 2.4
2017-Apr-16 16:00N 46°48' W 071°12'0 0.0 030 / 21007.1 5.9 2.7
2017-Apr-16 15:00N 46°48' W 071°12'0 0.0 030 / 21006.9 5.0 2.9
2017-Apr-16 14:00N 46°48' W 071°12'0 0.0 020 / 11006.8 4.5 3.2
2017-Apr-16 13:00N 46°48' W 071°12'0 0.0 030 / 21006.5 4.0 3.1
2017-Apr-16 11:00N 46°48' W 071°12'0 0.0 020 / 21005.8 4.0 3.2
2017-Apr-16 10:00N 46°48' W 071°12'0 0.0 040 / 31005.4 3.7 3.0
2017-Apr-16 09:00N 46°48' W 071°12'0 0.0 030 / 21005.1 4.1 3.6
2017-Apr-16 08:00N 46°48' W 071°12'0 0.0 050 / 21005.1 4.8 4.3
2017-Apr-16 07:00N 46°48' W 071°12'0 0.0 040 / 21005.5 8.1 7.4
2017-Apr-16 06:00N 46°48' W 071°12'0 0.0 1006.4 9.7 8.9
2017-Apr-16 05:00N 46°48' W 071°12'0 0.0 210 / 11007.6 11.5 9.0
2017-Apr-16 04:00N 46°48' W 071°12'0 0.0 220 / 41008.6 12.2 8.1
2017-Apr-16 03:00N 46°48' W 071°12'0 0.0 240 / 71009.5 13.1 7.1
2017-Apr-16 02:00N 46°48' W 071°12'0 0.0 250 / 11010.0 11.9 0.3
2017-Apr-16 01:00N 46°48' W 071°12'0 0.0 200 / 21010.6 13.7-1.0
2017-Apr-16 00:00N 46°48' W 071°12'   190 / 41011.3 14.5-1.8

Dump ship's entire track history